Albany, Wisconsin
Current Conditions -  °F | °C
As of 5:30 PM on Saturday 22 Nov 2014 (Local Time) from KEFT Reporting Station
Haze Haze  
Wind Chill: 38°   Ceiling: 200
Heat Index: 45°   Visibility: 1.5mi
Dew Point: 45°   Wind: 13mph
Humidity: 100%   Direction: 200°SSW
Pressure: 29.78"   Gusts: NA
Location:  42.71°N, 89.44°W
Report Text: KEFT 222330Z AUTO 20011KT 1 1/2SM BR BKN002 BKN010 OVC015 07/07 A2978 RMK AO2
Loading
Personal Weather Stations






























Interactive Weather Map New forecast layout! Learn more

10-Day Weather Forecast

Advertisements
Track Severe Weather on mobile